Terminal Aerodrome Forecast
Issued by NWS

Home | Current Version | Previous Version | Text Only | Print | Product List | Glossary On
Versions: 1 2 3 4 5 6 7 8 9 10 11 12 13 14 15
000
FTUS43 KMPX 152300
TAFRWF
TAF
KRWF 152336Z 1600/1624 13014G20KT P6SM OVC090
     FM161100 13018G24KT P6SM VCSH SCT030 OVC060
     FM161500 07012G18KT P6SM -RASN OVC025=

USA.gov is the U.S. government's official web portal to all federal, state and local government web resources and services.